Time;durP1;ratioP1;P1;durP2;ratioP2;P2;SDS_P1;SDS_P2;PMS_P1;PMS_P2;Temp;Humidity;BMP_temperature;BMP_pressure;BME280_temperature;BME280_humidity;BME280_pressure;Samples;Min_cycle;Max_cycle;Signal;HPM_P1;HPM_P2
2023/01/20 00:02:09;;;;;;;32.47;21.47;;;5.50;99.90;;;;;;5114401;28;20705;-82
2023/01/20 00:04:35;;;;;;;26.70;18.87;;;5.40;99.90;;;;;;5112775;28;20179;-83
2023/01/20 00:07:00;;;;;;;27.80;17.67;;;5.40;99.90;;;;;;5114557;28;20255;-88
2023/01/20 00:09:26;;;;;;;29.93;20.23;;;5.40;99.90;;;;;;5114032;28;20218;-81
2023/01/20 00:11:52;;;;;;;28.43;19.27;;;5.40;99.90;;;;;;5112708;28;20660;-82
2023/01/20 00:14:17;;;;;;;29.67;18.33;;;5.40;99.90;;;;;;5115120;28;20176;-81
2023/01/20 00:16:46;;;;;;;27.60;18.20;;;5.40;99.90;;;;;;5115179;28;20519;-84
2023/01/20 00:19:13;;;;;;;28.65;18.40;;;5.40;99.90;;;;;;5116019;28;20200;-89
2023/01/20 00:21:40;;;;;;;29.52;18.95;;;5.40;99.90;;;;;;5115585;28;20645;-83
2023/01/20 00:24:06;;;;;;;30.58;20.35;;;5.30;99.90;;;;;;5116731;28;20203;-89
2023/01/20 00:26:31;;;;;;;27.40;18.60;;;5.30;99.90;;;;;;5114688;28;20637;-82
2023/01/20 00:28:57;;;;;;;28.60;18.60;;;5.40;99.90;;;;;;5112449;28;20531;-82
2023/01/20 00:31:26;;;;;;;28.10;18.23;;;5.40;99.90;;;;;;5114118;28;20186;-82
2023/01/20 00:33:54;;;;;;;31.17;18.27;;;5.30;99.90;;;;;;5112381;28;20757;-83
2023/01/20 00:36:22;;;;;;;33.30;20.38;;;5.30;99.90;;;;;;5112579;28;20172;-82
2023/01/20 00:38:48;;;;;;;35.95;21.95;;;5.40;99.90;;;;;;5113677;28;20538;-85
2023/01/20 00:41:15;;;;;;;31.98;21.15;;;5.40;99.90;;;;;;5112487;28;20270;-86
2023/01/20 00:43:41;;;;;;;32.45;20.15;;;5.30;99.90;;;;;;5116015;28;20560;-83
2023/01/20 00:46:07;;;;;;;28.40;19.33;;;5.30;99.90;;;;;;5117616;28;20258;-87
2023/01/20 00:48:33;;;;;;;27.90;18.88;;;5.40;99.90;;;;;;5117394;28;20218;-83
2023/01/20 00:50:59;;;;;;;27.58;17.30;;;5.40;99.90;;;;;;5116137;28;20194;-82
2023/01/20 00:53:25;;;;;;;25.35;16.38;;;5.40;99.90;;;;;;5115775;28;20207;-82
2023/01/20 00:55:51;;;;;;;25.50;17.40;;;5.40;99.90;;;;;;5115774;28;20280;-88
2023/01/20 00:58:17;;;;;;;28.67;17.97;;;5.40;99.90;;;;;;5115911;28;20652;-87
2023/01/20 01:00:45;;;;;;;23.53;16.93;;;5.40;99.90;;;;;;5117262;28;20625;-83
2023/01/20 01:03:28;;;;;;;24.05;16.50;;;5.40;99.90;;;;;;5072064;28;20306;-81
2023/01/20 01:06:03;;;;;;;28.20;16.58;;;5.30;99.90;;;;;;5115845;28;20640;-87
2023/01/20 01:08:29;;;;;;;21.92;15.38;;;5.30;99.90;;;;;;5117013;28;20229;-87
2023/01/20 01:10:55;;;;;;;26.37;16.53;;;5.30;99.90;;;;;;5117184;28;20180;-87
2023/01/20 01:13:20;;;;;;;24.63;15.07;;;5.30;99.90;;;;;;5115935;28;20203;-83
2023/01/20 01:15:49;;;;;;;25.50;15.67;;;5.30;99.90;;;;;;5117472;28;20440;-82
2023/01/20 01:18:15;;;;;;;22.90;16.80;;;5.30;99.90;;;;;;5119331;28;20192;-87
2023/01/20 01:20:43;;;;;;;22.98;15.35;;;5.30;99.90;;;;;;5117747;28;20180;-88
2023/01/20 01:23:09;;;;;;;27.42;17.95;;;5.30;99.90;;;;;;5117400;28;20195;-83
2023/01/20 01:25:36;;;;;;;29.50;17.67;;;5.30;99.90;;;;;;5119237;28;20253;-82
2023/01/20 01:28:02;;;;;;;28.92;17.60;;;5.30;99.90;;;;;;5115580;28;20691;-88
2023/01/20 01:30:28;;;;;;;26.50;17.43;;;5.30;99.90;;;;;;5116483;28;20196;-83
2023/01/20 01:32:54;;;;;;;25.60;17.38;;;5.20;99.90;;;;;;5116543;27;20433;-83
2023/01/20 01:35:20;;;;;;;26.53;17.83;;;5.20;99.90;;;;;;5115252;28;20199;-87
2023/01/20 01:37:45;;;;;;;25.80;17.43;;;5.20;99.90;;;;;;5116584;28;20237;-87
2023/01/20 01:40:11;;;;;;;27.70;17.90;;;5.20;99.90;;;;;;5116402;28;20204;-82
2023/01/20 01:42:37;;;;;;;26.00;17.03;;;5.20;99.90;;;;;;5114879;28;20724;-82
2023/01/20 01:45:08;;;;;;;26.73;18.80;;;5.20;99.90;;;;;;5116340;28;20371;-82
2023/01/20 01:47:39;;;;;;;24.17;17.05;;;5.20;99.90;;;;;;5116763;28;20616;-82
2023/01/20 01:50:07;;;;;;;27.65;17.45;;;5.20;99.90;;;;;;5116278;28;20199;-82
2023/01/20 01:52:33;;;;;;;28.83;16.85;;;5.10;99.90;;;;;;5116449;28;20196;-83
2023/01/20 01:55:01;;;;;;;25.13;17.20;;;5.20;99.90;;;;;;5114892;28;20247;-87
2023/01/20 01:57:29;;;;;;;26.13;16.75;;;5.20;99.90;;;;;;5116057;28;20444;-83
2023/01/20 01:59:55;;;;;;;31.65;18.65;;;5.20;99.90;;;;;;5114724;28;20188;-88
2023/01/20 02:02:21;;;;;;;28.30;18.43;;;5.10;99.90;;;;;;5116583;28;20188;-88
2023/01/20 02:04:47;;;;;;;26.20;17.80;;;5.10;99.90;;;;;;5116783;28;20176;-85
2023/01/20 02:07:18;;;;;;;27.95;17.90;;;5.00;99.90;;;;;;5114683;28;20202;-85
2023/01/20 02:09:44;;;;;;;27.63;17.80;;;5.10;99.90;;;;;;5117048;28;20214;-87
2023/01/20 02:12:16;;;;;;;30.03;17.83;;;5.10;99.90;;;;;;5117860;28;20196;-89
2023/01/20 02:14:51;;;;;;;29.05;18.60;;;5.10;99.90;;;;;;5114593;28;20263;-83
2023/01/20 02:17:35;;;;;;;28.60;18.08;;;5.10;99.90;;;;;;5116060;28;20187;-87
2023/01/20 02:20:10;;;;;;;30.92;18.00;;;5.10;99.90;;;;;;5114456;28;20179;-82
2023/01/20 02:22:42;;;;;;;31.02;18.85;;;5.20;99.90;;;;;;5114516;28;20203;-87
2023/01/20 02:25:43;;;;;;;30.30;18.33;;;5.20;99.90;;;;;;5115487;28;20580;-82
2023/01/20 02:28:22;;;;;;;25.02;17.27;;;5.20;99.90;;;;;;5056071;28;20733;-82
2023/01/20 02:30:55;;;;;;;28.15;17.85;;;5.20;99.90;;;;;;5106883;28;20199;-87
2023/01/20 02:33:45;;;;;;;25.30;17.75;;;5.20;99.90;;;;;;5114114;28;20196;-88
2023/01/20 02:36:20;;;;;;;27.38;17.17;;;5.20;99.90;;;;;;5115479;28;20684;-87
2023/01/20 02:38:56;;;;;;;27.92;18.10;;;5.20;99.90;;;;;;5115345;28;20550;-83
2023/01/20 02:41:33;;;;;;;27.55;18.42;;;5.20;99.90;;;;;;5114032;28;20176;-82
2023/01/20 02:44:10;;;;;;;26.48;17.52;;;5.20;99.90;;;;;;5115349;28;20275;-83
2023/01/20 02:46:46;;;;;;;25.88;18.38;;;5.20;99.90;;;;;;5113749;28;20211;-83
2023/01/20 02:49:22;;;;;;;28.25;17.45;;;5.20;99.90;;;;;;5114982;28;20222;-88
2023/01/20 02:52:11;;;;;;;25.75;16.92;;;5.20;99.90;;;;;;5114685;28;20270;-83
2023/01/20 02:54:40;;;;;;;26.75;17.73;;;5.20;99.90;;;;;;5116471;28;20217;-81
2023/01/20 02:57:10;;;;;;;23.90;15.88;;;5.20;99.90;;;;;;5113940;28;20296;-83
2023/01/20 02:59:40;;;;;;;28.15;18.23;;;5.20;99.90;;;;;;5114864;28;20179;-87
2023/01/20 03:02:11;;;;;;;24.60;16.17;;;5.10;99.90;;;;;;5115240;28;20232;-87
2023/01/20 03:04:48;;;;;;;22.95;15.77;;;5.10;99.90;;;;;;5113652;28;20267;-82
2023/01/20 03:07:17;;;;;;;28.00;17.70;;;5.10;99.90;;;;;;5114855;28;20291;-82
2023/01/20 03:09:49;;;;;;;22.92;14.88;;;5.10;99.90;;;;;;5113283;28;20268;-87
2023/01/20 03:12:28;;;;;;;24.58;16.73;;;5.10;99.90;;;;;;5115188;28;20249;-83
2023/01/20 03:14:54;;;;;;;26.70;16.38;;;5.10;99.90;;;;;;5113550;28;20163;-83
2023/01/20 03:17:20;;;;;;;28.90;18.25;;;5.20;99.90;;;;;;5113434;28;20231;-82
2023/01/20 03:19:46;;;;;;;25.83;16.98;;;5.20;99.90;;;;;;5114515;28;20195;-83
2023/01/20 03:22:12;;;;;;;25.60;17.83;;;5.30;99.90;;;;;;5114947;28;20700;-83
2023/01/20 03:24:45;;;;;;;27.87;17.70;;;5.30;99.90;;;;;;5113297;28;20426;-82
2023/01/20 03:27:11;;;;;;;27.77;17.90;;;5.10;99.90;;;;;;5116885;28;20431;-82
2023/01/20 03:29:37;;;;;;;27.15;18.27;;;5.10;99.90;;;;;;5114795;28;20230;-83
2023/01/20 03:32:07;;;;;;;24.70;16.93;;;5.20;99.90;;;;;;5114662;28;20172;-86
2023/01/20 03:34:36;;;;;;;24.70;16.27;;;5.20;99.90;;;;;;5114471;28;20172;-87
2023/01/20 03:37:03;;;;;;;32.10;19.40;;;5.20;99.90;;;;;;5112995;28;20207;-88
2023/01/20 03:39:30;;;;;;;27.55;18.42;;;5.20;99.90;;;;;;5114331;28;20654;-87
2023/01/20 03:42:01;;;;;;;26.15;17.17;;;5.20;99.90;;;;;;5114653;28;20180;-83
2023/01/20 03:44:45;;;;;;;24.77;16.83;;;5.20;99.90;;;;;;5114210;28;20256;-87
2023/01/20 03:48:02;;;;;;;25.65;17.65;;;5.30;99.90;;;;;;5113224;28;20208;-87
2023/01/20 03:51:03;;;;;;;27.85;17.75;;;5.30;99.90;;;;;;5054597;28;20204;-83
2023/01/20 03:53:51;;;;;;;24.05;17.13;;;5.30;99.90;;;;;;5112517;28;20258;-86
2023/01/20 03:56:34;;;;;;;27.52;19.02;;;5.20;99.90;;;;;;5114579;28;20260;-82
2023/01/20 03:59:01;;;;;;;34.03;19.35;;;5.30;99.90;;;;;;5112826;28;20214;-83
2023/01/20 04:01:35;;;;;;;26.77;18.20;;;5.20;99.90;;;;;;5114336;28;20172;-87
2023/01/20 04:04:04;;;;;;;26.20;18.35;;;5.20;99.90;;;;;;5114212;28;20225;-87
2023/01/20 04:06:32;;;;;;;30.80;19.02;;;5.10;99.90;;;;;;5112843;28;20179;-87
2023/01/20 04:09:14;;;;;;;27.70;19.52;;;5.20;99.90;;;;;;5112659;28;20268;-83
2023/01/20 04:11:40;;;;;;;29.10;18.90;;;5.20;99.90;;;;;;5112939;28;20320;-83
2023/01/20 04:14:08;;;;;;;26.05;18.13;;;5.20;99.90;;;;;;5112704;28;20196;-83
2023/01/20 04:16:35;;;;;;;28.30;20.27;;;5.10;99.90;;;;;;5112643;28;20641;-86
2023/01/20 04:19:00;;;;;;;28.15;18.75;;;5.10;99.90;;;;;;5116899;28;20231;-88
2023/01/20 04:21:34;;;;;;;29.80;20.13;;;5.10;99.90;;;;;;5118307;28;20269;-83
2023/01/20 04:24:15;;;;;;;27.08;18.02;;;5.10;99.90;;;;;;5117929;28;20413;-87
2023/01/20 04:26:41;;;;;;;28.00;18.42;;;5.10;99.90;;;;;;5116584;28;20188;-83
2023/01/20 04:29:07;;;;;;;28.83;18.60;;;5.20;99.90;;;;;;5116771;28;20211;-88
2023/01/20 04:31:36;;;;;;;26.50;19.63;;;5.20;99.90;;;;;;5117147;28;20183;-82
2023/01/20 04:34:03;;;;;;;30.00;19.70;;;5.10;99.90;;;;;;5117678;28;20264;-83
2023/01/20 04:36:29;;;;;;;28.67;17.70;;;5.10;99.90;;;;;;5116173;28;20537;-87
2023/01/20 04:38:56;;;;;;;31.07;19.67;;;5.10;99.90;;;;;;5117542;27;20274;-84
2023/01/20 04:41:22;;;;;;;30.80;19.35;;;5.40;99.90;;;;;;5117791;28;20469;-87
2023/01/20 04:43:48;;;;;;;34.03;18.70;;;5.60;99.90;;;;;;5116275;28;20722;-85
2023/01/20 04:46:15;;;;;;;27.27;17.97;;;5.80;99.90;;;;;;5116077;28;20183;-87
2023/01/20 04:48:42;;;;;;;26.83;18.55;;;5.80;99.90;;;;;;5115933;28;20749;-83
2023/01/20 04:51:08;;;;;;;28.42;17.77;;;5.90;99.90;;;;;;5117523;28;20232;-86
2023/01/20 04:53:34;;;;;;;28.73;17.30;;;6.00;99.90;;;;;;5115997;28;20203;-88
2023/01/20 04:55:59;;;;;;;32.00;18.60;;;6.10;99.90;;;;;;5117336;28;20227;-83
2023/01/20 04:58:25;;;;;;;30.93;18.40;;;6.20;99.90;;;;;;5117116;28;20280;-88
2023/01/20 05:00:51;;;;;;;30.80;18.73;;;6.30;99.90;;;;;;5116000;28;20652;-87
2023/01/20 05:03:17;;;;;;;32.83;21.47;;;6.30;99.90;;;;;;5117256;28;20287;-89
2023/01/20 05:05:42;;;;;;;29.60;19.67;;;6.40;99.90;;;;;;5117254;28;20180;-89
2023/01/20 05:08:08;;;;;;;30.37;18.53;;;6.50;99.90;;;;;;5114061;28;20531;-82
2023/01/20 05:10:34;;;;;;;32.73;20.30;;;6.50;99.90;;;;;;5113625;28;20865;-89
2023/01/20 05:13:00;;;;;;;31.60;17.93;;;6.60;99.90;;;;;;5117318;28;20420;-88
2023/01/20 05:15:26;;;;;;;28.93;19.37;;;6.60;99.90;;;;;;5115494;28;20460;-83
2023/01/20 05:17:52;;;;;;;32.00;19.52;;;6.60;99.90;;;;;;5117935;28;20512;-89
2023/01/20 05:20:19;;;;;;;27.10;17.30;;;6.60;99.90;;;;;;5118035;28;20200;-83
2023/01/20 05:22:46;;;;;;;32.10;19.25;;;6.60;99.90;;;;;;5113729;28;20519;-83
2023/01/20 05:25:12;;;;;;;37.20;19.67;;;6.50;99.90;;;;;;5109190;28;20205;-82
2023/01/20 05:27:37;;;;;;;31.40;19.13;;;6.50;99.90;;;;;;5110045;28;20200;-83
2023/01/20 05:30:05;;;;;;;31.20;17.90;;;6.50;99.90;;;;;;5103907;28;20459;-82
2023/01/20 05:32:30;;;;;;;33.00;19.02;;;6.50;99.90;;;;;;5115508;28;20200;-83
2023/01/20 05:34:56;;;;;;;30.27;18.93;;;6.50;99.90;;;;;;5116612;28;20179;-81
2023/01/20 05:37:22;;;;;;;30.30;18.87;;;6.40;99.90;;;;;;5114309;28;20317;-83
2023/01/20 05:39:47;;;;;;;32.73;20.80;;;6.50;99.90;;;;;;5109279;28;20179;-83
2023/01/20 05:42:13;;;;;;;33.27;19.07;;;6.50;99.90;;;;;;5099468;28;20235;-83
2023/01/20 05:44:38;;;;;;;27.77;19.70;;;6.50;99.90;;;;;;5112105;28;20249;-86
2023/01/20 05:47:04;;;;;;;36.80;21.40;;;6.50;99.90;;;;;;5112962;28;20393;-83
2023/01/20 05:49:30;;;;;;;46.00;25.87;;;6.50;99.90;;;;;;5099833;28;20692;-82
2023/01/20 05:51:55;;;;;;;47.30;26.00;;;6.40;99.90;;;;;;5111268;28;20180;-83
2023/01/20 05:54:21;;;;;;;35.90;22.20;;;6.40;99.90;;;;;;5111098;28;20172;-82
2023/01/20 05:56:48;;;;;;;37.13;22.30;;;6.40;99.90;;;;;;5094265;28;20228;-89
2023/01/20 05:59:13;;;;;;;33.08;21.83;;;6.40;99.90;;;;;;5095404;28;20199;-82
2023/01/20 06:01:39;;;;;;;32.23;22.03;;;6.30;99.90;;;;;;5095113;28;20212;-88
2023/01/20 06:04:06;;;;;;;32.80;22.27;;;6.30;99.90;;;;;;5094396;28;20200;-83
2023/01/20 06:06:31;;;;;;;34.60;21.40;;;6.30;99.90;;;;;;5099799;28;20249;-88
2023/01/20 06:08:57;;;;;;;36.47;21.93;;;6.30;99.90;;;;;;5104283;28;20219;-88
2023/01/20 06:11:26;;;;;;;35.37;21.47;;;6.30;99.90;;;;;;5104944;28;20188;-82
2023/01/20 06:13:52;;;;;;;39.53;23.27;;;6.30;99.90;;;;;;5100783;28;20681;-83
2023/01/20 06:16:18;;;;;;;33.60;21.50;;;6.20;99.90;;;;;;5095306;28;20195;-82
2023/01/20 06:18:44;;;;;;;35.10;21.17;;;6.10;99.90;;;;;;5095508;28;20498;-87
2023/01/20 06:21:09;;;;;;;38.83;23.20;;;6.10;99.90;;;;;;5094901;28;20268;-88
2023/01/20 06:23:35;;;;;;;39.10;23.90;;;6.00;99.90;;;;;;5102397;28;20452;-90
2023/01/20 06:26:14;;;;;;;39.20;22.97;;;5.80;99.90;;;;;;5112003;28;20431;-83
2023/01/20 06:28:40;;;;;;;35.10;21.80;;;5.70;99.90;;;;;;5095160;28;20636;-87
2023/01/20 06:31:12;;;;;;;35.97;22.13;;;5.60;99.90;;;;;;5114385;28;20184;-83
2023/01/20 06:33:38;;;;;;;34.22;22.95;;;5.60;99.90;;;;;;5108856;28;20407;-88
2023/01/20 06:36:05;;;;;;;34.55;21.40;;;5.50;99.90;;;;;;5103520;28;20520;-87
2023/01/20 06:38:33;;;;;;;38.75;23.73;;;5.50;99.90;;;;;;5100938;28;20201;-81
2023/01/20 06:41:01;;;;;;;39.40;24.63;;;5.40;99.90;;;;;;5093137;28;20645;-81
2023/01/20 06:43:34;;;;;;;40.08;23.70;;;5.40;99.90;;;;;;5093687;28;20661;-87
2023/01/20 06:46:05;;;;;;;43.65;24.98;;;5.30;99.90;;;;;;5098516;28;20228;-87
2023/01/20 06:48:32;;;;;;;37.17;23.67;;;5.30;99.90;;;;;;5114913;28;20203;-87
2023/01/20 06:51:10;;;;;;;40.55;24.73;;;5.30;99.90;;;;;;5113138;28;20194;-88
2023/01/20 06:53:36;;;;;;;35.97;23.63;;;5.30;99.90;;;;;;5111510;28;20203;-84
2023/01/20 06:56:02;;;;;;;39.10;24.10;;;5.20;99.90;;;;;;5091423;28;20231;-82
2023/01/20 06:58:30;;;;;;;39.38;24.13;;;5.20;99.90;;;;;;5100438;28;20253;-86
2023/01/20 07:00:57;;;;;;;40.67;23.33;;;5.20;99.90;;;;;;5098982;28;20184;-87
2023/01/20 07:03:23;;;;;;;41.13;23.98;;;5.20;99.90;;;;;;5106514;28;20337;-81
2023/01/20 07:06:00;;;;;;;37.80;22.47;;;5.20;99.90;;;;;;5111021;28;20247;-87
2023/01/20 07:08:26;;;;;;;37.03;23.88;;;5.20;99.90;;;;;;5102061;28;20543;-87
2023/01/20 07:10:52;;;;;;;40.00;22.58;;;5.10;99.90;;;;;;5092833;28;20330;-87
2023/01/20 07:13:17;;;;;;;44.03;25.87;;;5.10;99.90;;;;;;5097405;28;20337;-82
2023/01/20 07:15:43;;;;;;;43.38;25.27;;;5.10;99.90;;;;;;5089765;28;20184;-81
2023/01/20 07:18:09;;;;;;;40.83;24.03;;;5.10;99.90;;;;;;5099252;28;20626;-81
2023/01/20 07:20:37;;;;;;;46.87;25.73;;;5.10;99.90;;;;;;5101862;28;20401;-81
2023/01/20 07:23:03;;;;;;;41.58;24.73;;;5.10;99.90;;;;;;5116493;28;20438;-87
2023/01/20 07:25:29;;;;;;;45.58;27.05;;;5.10;99.90;;;;;;5098932;28;20720;-88
2023/01/20 07:27:56;;;;;;;40.17;24.43;;;5.10;99.90;;;;;;5101658;28;20299;-87
2023/01/20 07:30:22;;;;;;;47.33;26.85;;;5.10;99.90;;;;;;5098020;28;20206;-82
2023/01/20 07:32:49;;;;;;;41.85;24.60;;;5.10;99.90;;;;;;5099949;28;20192;-85
2023/01/20 07:35:14;;;;;;;40.63;24.43;;;5.20;99.90;;;;;;5098152;28;20195;-82
2023/01/20 07:37:40;;;;;;;42.10;26.17;;;5.10;99.90;;;;;;5088278;28;20524;-86
2023/01/20 07:40:07;;;;;;;43.97;27.43;;;5.10;99.90;;;;;;5104615;28;20645;-85
2023/01/20 07:42:35;;;;;;;43.72;26.48;;;5.00;99.90;;;;;;5093115;28;20220;-87
2023/01/20 07:45:01;;;;;;;46.42;26.75;;;5.00;99.90;;;;;;5090336;28;20241;-82
2023/01/20 07:47:26;;;;;;;45.67;26.03;;;5.00;99.90;;;;;;5101338;28;20199;-82
2023/01/20 07:49:52;;;;;;;39.33;25.53;;;5.00;99.90;;;;;;5099004;28;20203;-86
2023/01/20 07:52:18;;;;;;;43.57;25.03;;;5.10;99.90;;;;;;5093689;28;20242;-85
2023/01/20 07:54:43;;;;;;;46.27;26.57;;;5.10;99.90;;;;;;5100008;28;20369;-86
2023/01/20 07:57:09;;;;;;;40.27;25.43;;;5.00;99.90;;;;;;5107605;28;20254;-87
2023/01/20 07:59:35;;;;;;;39.80;24.37;;;5.00;99.90;;;;;;5107512;28;20190;-82
2023/01/20 08:02:01;;;;;;;41.87;24.90;;;5.00;99.90;;;;;;5097328;28;20664;-88
2023/01/20 08:04:26;;;;;;;43.27;26.80;;;5.00;99.90;;;;;;5097764;28;20405;-86
2023/01/20 08:06:52;;;;;;;43.77;24.87;;;4.90;99.90;;;;;;5102720;28;20755;-88
2023/01/20 08:09:17;;;;;;;47.70;25.93;;;4.90;99.90;;;;;;5101400;28;20239;-83
2023/01/20 08:11:43;;;;;;;40.97;25.10;;;4.80;99.90;;;;;;5095277;28;20273;-86
2023/01/20 08:14:09;;;;;;;43.33;25.10;;;4.80;99.90;;;;;;5110618;28;20241;-82
2023/01/20 08:16:35;;;;;;;42.67;24.23;;;4.90;99.90;;;;;;5104508;28;20179;-82
2023/01/20 08:19:00;;;;;;;45.20;25.17;;;4.90;99.90;;;;;;5098939;28;20209;-82
2023/01/20 08:21:29;;;;;;;38.20;22.70;;;4.80;99.90;;;;;;5103743;28;20626;-87
2023/01/20 08:23:56;;;;;;;44.17;23.58;;;4.80;99.90;;;;;;5097180;28;20484;-82
2023/01/20 08:26:27;;;;;;;43.63;25.58;;;4.80;99.90;;;;;;5099800;27;20255;-87
2023/01/20 08:28:53;;;;;;;38.85;23.80;;;4.70;99.90;;;;;;5093818;28;20220;-82
2023/01/20 08:31:22;;;;;;;41.20;24.83;;;4.60;99.90;;;;;;5095295;28;20196;-87
2023/01/20 08:33:50;;;;;;;48.40;26.75;;;4.50;99.90;;;;;;5098780;28;20628;-83
2023/01/20 08:36:19;;;;;;;43.63;25.15;;;4.50;99.90;;;;;;5100727;28;20183;-88
2023/01/20 08:38:46;;;;;;;39.85;23.80;;;4.40;99.90;;;;;;5093058;28;20654;-87
2023/01/20 08:41:24;;;;;;;41.47;24.13;;;4.40;99.90;;;;;;5097298;28;20191;-83
2023/01/20 08:43:50;;;;;;;43.35;24.30;;;4.40;99.90;;;;;;5101418;28;20231;-82
2023/01/20 08:46:18;;;;;;;40.55;25.10;;;4.30;99.90;;;;;;5102006;28;20196;-83
2023/01/20 08:48:44;;;;;;;45.45;24.98;;;4.30;99.90;;;;;;5102269;28;20624;-86
2023/01/20 08:51:14;;;;;;;44.75;24.83;;;4.20;99.90;;;;;;5104320;28;20470;-82
2023/01/20 08:53:40;;;;;;;42.70;24.30;;;4.20;99.90;;;;;;5101101;28;20202;-87
2023/01/20 08:56:06;;;;;;;48.45;25.83;;;4.20;99.90;;;;;;5105777;28;20228;-87
2023/01/20 08:58:32;;;;;;;43.10;25.40;;;4.20;99.90;;;;;;5102522;28;20698;-87
2023/01/20 09:00:58;;;;;;;45.63;26.73;;;4.20;99.90;;;;;;5093985;28;20976;-88
2023/01/20 09:03:24;;;;;;;44.40;24.87;;;4.20;99.90;;;;;;5096872;28;20472;-87
2023/01/20 09:05:50;;;;;;;49.10;26.08;;;4.20;99.90;;;;;;5099336;28;20798;-87
2023/01/20 09:08:16;;;;;;;44.83;24.70;;;4.20;99.90;;;;;;5093684;28;20514;-88
2023/01/20 09:10:43;;;;;;;45.38;26.35;;;4.20;99.90;;;;;;5096127;28;20230;-83
2023/01/20 09:13:09;;;;;;;44.45;25.10;;;4.20;99.90;;;;;;5099707;28;20202;-82
2023/01/20 09:15:34;;;;;;;41.00;24.07;;;4.10;99.90;;;;;;5098024;28;20271;-83
2023/01/20 09:18:00;;;;;;;50.40;28.63;;;4.20;99.90;;;;;;5099807;28;20200;-88
2023/01/20 09:20:27;;;;;;;47.63;26.23;;;4.10;99.90;;;;;;5100577;28;20164;-83
2023/01/20 09:22:53;;;;;;;46.92;25.95;;;4.20;99.90;;;;;;5100190;28;20197;-83
2023/01/20 09:25:19;;;;;;;46.17;24.83;;;4.20;99.90;;;;;;5103675;28;20540;-83
2023/01/20 09:27:45;;;;;;;44.90;27.60;;;4.20;99.90;;;;;;5101961;28;20966;-87
2023/01/20 09:30:11;;;;;;;50.50;27.00;;;4.20;99.90;;;;;;5101403;28;20450;-83
2023/01/20 09:32:37;;;;;;;49.97;27.20;;;4.20;99.90;;;;;;5087840;28;20492;-88
2023/01/20 09:35:03;;;;;;;50.30;26.10;;;4.20;99.90;;;;;;5107634;28;20222;-84
2023/01/20 09:46:27;;;;;;;48.72;27.50;;;4.20;99.90;;;;;;5088637;28;20234;-82
2023/01/20 09:55:12;;;;;;;55.38;29.55;;;4.20;99.90;;;;;;5092371;28;20679;-86
2023/01/20 09:57:41;;;;;;;52.25;28.42;;;4.20;99.90;;;;;;5094770;28;20208;-85
2023/01/20 10:00:18;;;;;;;54.95;27.02;;;4.30;99.90;;;;;;5093872;28;20173;-82
2023/01/20 10:02:48;;;;;;;53.67;29.02;;;4.30;99.90;;;;;;5096579;28;20199;-83
2023/01/20 10:05:19;;;;;;;53.92;26.60;;;4.30;99.90;;;;;;5112121;28;20228;-82
2023/01/20 10:07:54;;;;;;;53.78;27.83;;;4.30;99.90;;;;;;5101381;28;20291;-87
2023/01/20 10:10:22;;;;;;;52.30;28.85;;;4.30;99.90;;;;;;5097624;28;20266;-88
2023/01/20 10:13:15;;;;;;;56.28;30.13;;;4.30;99.90;;;;;;5098212;28;20204;-86
2023/01/20 10:15:49;;;;;;;58.45;30.25;;;4.30;99.90;;;;;;5099475;28;20283;-87
2023/01/20 10:18:36;;;;;;;51.35;28.75;;;4.30;99.90;;;;;;5108481;28;20200;-83
2023/01/20 10:21:18;;;;;;;52.78;27.10;;;4.30;99.90;;;;;;5096138;28;20263;-82
2023/01/20 10:23:50;;;;;;;52.65;29.48;;;4.30;99.90;;;;;;5095727;28;20219;-82
2023/01/20 10:26:38;;;;;;;50.17;27.75;;;4.30;99.90;;;;;;5101376;28;20191;-87
2023/01/20 10:29:09;;;;;;;54.33;32.58;;;4.40;99.90;;;;;;5099722;28;20691;-86
2023/01/20 10:31:42;;;;;;;52.85;31.58;;;4.40;99.90;;;;;;5108914;28;20184;-86
2023/01/20 10:34:18;;;;;;;59.22;31.67;;;4.40;99.90;;;;;;5097522;28;20664;-83
2023/01/20 10:36:54;;;;;;;59.08;30.95;;;4.40;99.90;;;;;;5098901;28;20188;-83
2023/01/20 10:39:45;;;;;;;62.92;30.08;;;4.40;99.90;;;;;;5112528;28;20258;-87
2023/01/20 10:42:13;;;;;;;49.97;27.67;;;4.50;99.90;;;;;;5110054;28;20206;-86
2023/01/20 10:44:40;;;;;;;51.95;29.38;;;4.50;99.90;;;;;;5113296;28;20180;-82
2023/01/20 10:47:15;;;;;;;60.63;31.70;;;4.50;99.90;;;;;;5113726;28;20194;-87
2023/01/20 10:50:04;;;;;;;54.83;29.60;;;4.50;99.90;;;;;;5107636;28;20208;-82
2023/01/20 10:52:39;;;;;;;59.08;32.72;;;4.50;99.90;;;;;;5110210;28;20200;-83
2023/01/20 10:55:23;;;;;;;57.88;29.88;;;4.50;99.90;;;;;;5106287;28;20211;-86
2023/01/20 10:58:19;;;;;;;50.22;29.02;;;4.60;99.90;;;;;;5091480;28;20195;-82
2023/01/20 11:00:45;;;;;;;50.65;28.55;;;4.60;99.90;;;;;;5098738;28;20196;-86
2023/01/20 11:03:16;;;;;;;54.03;30.00;;;4.70;99.90;;;;;;5099248;28;20287;-82
2023/01/20 11:05:43;;;;;;;53.63;27.48;;;4.80;99.90;;;;;;5105574;28;20443;-83
2023/01/20 11:08:16;;;;;;;51.25;27.58;;;4.80;99.90;;;;;;5102766;28;20204;-87
2023/01/20 11:10:42;;;;;;;54.25;27.48;;;5.00;99.90;;;;;;5099711;28;20216;-83
2023/01/20 11:13:10;;;;;;;54.10;26.83;;;5.00;99.90;;;;;;5094258;28;20569;-83
2023/01/20 11:15:48;;;;;;;56.90;29.30;;;5.10;99.90;;;;;;5096125;28;20249;-86
2023/01/20 11:18:13;;;;;;;47.47;25.98;;;5.10;99.90;;;;;;5108148;28;20191;-83
2023/01/20 11:20:51;;;;;;;45.27;25.60;;;5.10;99.90;;;;;;5099831;28;20690;-87
2023/01/20 11:23:47;;;;;;;49.50;25.75;;;5.20;99.90;;;;;;5102013;28;20240;-83
2023/01/20 11:26:23;;;;;;;45.38;24.15;;;5.20;99.90;;;;;;5101344;28;20177;-87
2023/01/20 11:28:57;;;;;;;48.22;25.00;;;5.30;99.90;;;;;;5105509;28;20207;-82
2023/01/20 11:31:39;;;;;;;44.38;23.52;;;5.30;99.90;;;;;;5101186;28;20179;-83
2023/01/20 11:34:24;;;;;;;47.17;25.45;;;5.40;99.90;;;;;;5099500;28;20227;-82
2023/01/20 11:37:03;;;;;;;44.70;23.70;;;5.40;99.90;;;;;;5093240;28;20238;-86
2023/01/20 11:40:02;;;;;;;45.83;24.00;;;5.40;99.90;;;;;;5102125;28;20514;-87
2023/01/20 11:42:40;;;;;;;43.20;24.05;;;5.50;99.90;;;;;;5056793;28;20208;-82
2023/01/20 11:45:21;;;;;;;38.13;22.50;;;5.50;99.90;;;;;;5096458;28;20265;-82
2023/01/20 11:47:57;;;;;;;43.65;24.42;;;5.50;99.90;;;;;;5093470;28;20211;-87
2023/01/20 11:50:49;;;;;;;42.20;24.52;;;5.50;99.90;;;;;;5101119;28;20253;-84
2023/01/20 11:53:19;;;;;;;44.47;24.00;;;5.50;99.90;;;;;;5094314;28;20226;-83
2023/01/20 11:55:50;;;;;;;39.92;23.10;;;5.60;99.90;;;;;;5094617;28;20692;-86
2023/01/20 11:58:22;;;;;;;42.17;24.63;;;5.60;99.90;;;;;;5098541;28;20200;-87
2023/01/20 12:00:50;;;;;;;39.53;22.83;;;5.60;99.90;;;;;;5097726;28;20184;-86
2023/01/20 12:03:28;;;;;;;37.63;22.50;;;5.70;99.90;;;;;;5095882;28;20192;-83
2023/01/20 12:06:13;;;;;;;41.85;21.58;;;5.70;99.90;;;;;;5094401;28;20526;-84
2023/01/20 12:08:47;;;;;;;42.17;23.85;;;5.70;99.90;;;;;;5099151;28;20235;-83
2023/01/20 12:11:20;;;;;;;36.92;22.60;;;5.70;99.90;;;;;;5093890;28;20184;-83
2023/01/20 12:14:19;;;;;;;46.13;22.63;;;5.70;99.90;;;;;;5093177;28;20677;-87
2023/01/20 12:16:54;;;;;;;41.55;21.48;;;5.80;99.90;;;;;;5075284;28;20288;-82
2023/01/20 12:19:29;;;;;;;38.90;20.48;;;5.80;99.90;;;;;;5101058;28;20581;-89
2023/01/20 12:21:58;;;;;;;35.75;21.30;;;5.70;99.90;;;;;;5097594;28;20697;-87
2023/01/20 12:25:07;;;;;;;33.75;19.38;;;5.80;99.90;;;;;;5114366;28;20439;-88
2023/01/20 12:27:35;;;;;;;32.70;19.08;;;5.80;99.90;;;;;;5102763;28;20226;-88
2023/01/20 12:30:06;;;;;;;30.33;17.30;;;5.80;99.90;;;;;;5092790;28;20204;-88
2023/01/20 12:32:32;;;;;;;30.35;17.92;;;5.80;99.90;;;;;;5103028;28;20205;-82
2023/01/20 12:34:58;;;;;;;22.80;16.37;;;5.80;99.90;;;;;;5095584;28;20187;-87
2023/01/20 12:37:46;;;;;;;27.17;15.60;;;5.80;99.90;;;;;;5097156;28;20455;-86
2023/01/20 12:40:39;;;;;;;23.42;14.48;;;5.80;99.90;;;;;;5104326;28;20180;-82
2023/01/20 12:43:08;;;;;;;23.40;15.45;;;5.80;99.90;;;;;;5094463;28;20235;-82
2023/01/20 12:45:43;;;;;;;24.08;15.73;;;5.70;99.90;;;;;;5097261;28;20772;-87
2023/01/20 12:48:30;;;;;;;19.55;14.32;;;5.70;99.90;;;;;;5093468;28;20579;-82
2023/01/20 12:51:26;;;;;;;17.35;12.52;;;5.70;99.90;;;;;;5105418;28;20224;-86
2023/01/20 12:54:01;;;;;;;17.27;12.43;;;5.60;99.90;;;;;;5112765;27;20241;-87
2023/01/20 12:56:46;;;;;;;19.98;12.43;;;5.50;99.90;;;;;;5108357;28;20284;-82
2023/01/20 12:59:39;;;;;;;15.63;11.57;;;5.50;99.90;;;;;;5097333;28;20571;-82
2023/01/20 13:02:19;;;;;;;14.98;10.65;;;5.50;99.90;;;;;;5105473;28;20680;-83
2023/01/20 13:05:05;;;;;;;15.27;11.05;;;5.40;99.90;;;;;;5109148;28;20458;-82
2023/01/20 13:07:38;;;;;;;16.02;11.85;;;5.40;99.90;;;;;;5109454;28;20616;-87
2023/01/20 13:10:39;;;;;;;17.15;11.75;;;5.40;99.90;;;;;;5105530;28;20219;-82